| time (UTC) | temp F | wind direction | speed MPH | gust MPH | rain 1hr in | rain 24hr in | rain mn in | humidity % | barometer mb |
| 20260506023723 | 68 | 303 | 8.0 | 10.0 | 0.00 | 0.00 | 0.00 | 44 | 1013.1 |
| 20260506022518 | 68 | 296 | 9.0 | 12.0 | 0.00 | 0.00 | 0.00 | 43 | 1012.7 |
| 20260506021325 | 68 | 303 | 7.0 | 10.0 | 0.00 | 0.00 | 0.00 | 43 | 1012.8 |
| 20260506020218 | 68 | 291 | 8.0 | 10.0 | 0.00 | 0.00 | 0.00 | 42 | 1012.8 |
| 20260506014918 | 69 | 306 | 8.0 | 12.0 | 0.00 | 0.00 | 0.00 | 42 | 1012.7 |
| 20260506013718 | 69 | 290 | 8.0 | 12.0 | 0.00 | 0.00 | 0.00 | 42 | 1012.6 |
| 20260506012518 | 70 | 305 | 10.0 | 14.0 | 0.00 | 0.00 | 0.00 | 42 | 1012.5 |
| 20260506011323 | 70 | 305 | 11.0 | 14.0 | 0.00 | 0.00 | 0.00 | 41 | 1012.5 |
| 20260506010138 | 71 | 298 | 8.0 | 12.0 | 0.00 | 0.00 | 0.00 | 39 | 1012.7 |
| 20260506004918 | 71 | 313 | 13.0 | 18.0 | 0.00 | 0.00 | 0.00 | 38 | 1012.4 |
| 20260506003718 | 73 | 10 | 9.0 | 14.0 | 0.00 | 0.00 | 0.00 | 35 | 1012.2 |
| 20260506002518 | 72 | 21 | 6.0 | 12.0 | 0.00 | 0.00 | 0.00 | 35 | 1012.2 |
| 20260506001317 | 72 | 35 | 6.0 | 8.0 | 0.00 | 0.00 | 0.00 | 34 | 1012.1 |
| 20260506000118 | 73 | 15 | 2.0 | 4.0 | 0.00 | 0.00 | 0.00 | 33 | 1012.1 |
| 20260505234923 | 75 | 33 | 8.0 | 10.0 | 0.00 | 0.00 | 0.00 | 31 | 1012.0 |
| 20260505233718 | 74 | 6 | 1.0 | 4.0 | 0.00 | 0.00 | 0.00 | 31 | 1012.0 |
| 20260505232538 | 74 | 60 | 2.0 | 6.0 | 0.00 | 0.00 | 0.00 | 31 | 1011.9 |
| 20260505231323 | 73 | 333 | 6.0 | 8.0 | 0.00 | 0.00 | 0.00 | 31 | 1011.9 |
| 20260505230118 | 74 | 11 | 8.0 | 12.0 | 0.00 | 0.00 | 0.00 | 31 | 1012.2 |
| 20260505224934 | 74 | 315 | 11.0 | 18.0 | 0.00 | 0.00 | 0.00 | 31 | 1012.2 |
| 20260505223724 | 75 | 42 | 9.0 | 16.0 | 0.00 | 0.00 | 0.00 | 30 | 1012.1 |
| 20260505222518 | 75 | 66 | 6.0 | 10.0 | 0.00 | 0.00 | 0.00 | 30 | 1012.3 |
| 20260505221318 | 74 | 46 | 3.0 | 6.0 | 0.00 | 0.00 | 0.00 | 31 | 1012.2 |
| 20260505220123 | 75 | 32 | 5.0 | 8.0 | 0.00 | 0.00 | 0.00 | 31 | 1012.3 |
| 20260505214923 | 74 | 114 | 5.0 | 12.0 | 0.00 | 0.00 | 0.00 | 31 | 1012.4 |
| 20260505213717 | 74 | 43 | 10.0 | 14.0 | 0.00 | 0.00 | 0.00 | 31 | 1012.6 |
| 20260505212523 | 73 | 358 | 6.0 | 10.0 | 0.00 | 0.00 | 0.00 | 32 | 1012.6 |
| 20260505211318 | 73 | 329 | 12.0 | 18.0 | 0.00 | 0.00 | 0.00 | 32 | 1012.6 |
| 20260505210118 | 72 | 352 | 8.0 | 14.0 | 0.00 | 0.00 | 0.00 | 33 | 1012.6 |
| 20260505204919 | 73 | 298 | 9.0 | 14.0 | 0.00 | 0.00 | 0.00 | 33 | 1012.5 |
| 20260505203718 | 72 | 33 | 8.0 | 12.0 | 0.00 | 0.00 | 0.00 | 33 | 1012.6 |
| 20260505202517 | 72 | 356 | 6.0 | 10.0 | 0.00 | 0.00 | 0.00 | 34 | 1012.7 |
| 20260505201318 | 71 | 352 | 5.0 | 12.0 | 0.00 | 0.00 | 0.00 | 36 | 1012.7 |
| 20260505200123 | 71 | 311 | 10.0 | 18.0 | 0.00 | 0.00 | 0.00 | 36 | 1012.8 |
| 20260505194923 | 70 | 349 | 7.0 | 12.0 | 0.00 | 0.00 | 0.00 | 38 | 1012.9 |
| 20260505193723 | 70 | 73 | 8.0 | 16.0 | 0.00 | 0.00 | 0.00 | 38 | 1012.8 |
| 20260505192544 | 70 | 353 | 6.0 | 10.0 | 0.00 | 0.00 | 0.00 | 39 | 1012.9 |
| 20260505191323 | 69 | 343 | 8.0 | 12.0 | 0.00 | 0.00 | 0.00 | 40 | 1012.9 |
| 20260505190143 | 68 | 24 | 3.0 | 8.0 | 0.00 | 0.00 | 0.00 | 41 | 1012.9 |
| 20260505184918 | 68 | 335 | 6.0 | 10.0 | 0.00 | 0.00 | 0.00 | 41 | 1013.1 |
| 20260505183735 | 67 | 337 | 7.0 | 10.0 | 0.00 | 0.00 | 0.00 | 41 | 1012.9 |
| 20260505182524 | 67 | 13 | 6.0 | 10.0 | 0.00 | 0.00 | 0.00 | 41 | 1012.9 |
| 20260505181343 | 66 | 50 | 2.0 | 8.0 | 0.00 | 0.00 | 0.00 | 42 | 1012.8 |
| 20260505180119 | 65 | 14 | 3.0 | 6.0 | 0.00 | 0.00 | 0.00 | 41 | 1013.0 |
| 20260505174918 | 64 | 324 | 2.0 | 6.0 | 0.00 | 0.00 | 0.00 | 43 | 1013.0 |
| 20260505173718 | 63 | 160 | 2.0 | 4.0 | 0.00 | 0.00 | 0.00 | 44 | 1012.9 |
| 20260505172523 | 62 | 332 | 3.0 | 4.0 | 0.00 | 0.00 | 0.00 | 46 | 1012.9 |
| 20260505171328 | 61 | 17 | 4.0 | 6.0 | 0.00 | 0.00 | 0.00 | 46 | 1012.8 |
| 20260505170123 | 60 | 353 | 3.0 | 6.0 | 0.00 | 0.00 | 0.00 | 48 | 1012.8 |
| 20260505164923 | 60 | 358 | 0.0 | 2.0 | 0.00 | 0.00 | 0.00 | 49 | 1013.0 |
| 20260505163717 | 59 | 331 | 4.0 | 6.0 | 0.00 | 0.00 | 0.00 | 51 | 1012.9 |
| 20260505162523 | 58 | 340 | 2.0 | 4.0 | 0.00 | 0.00 | 0.00 | 51 | 1013.1 |
| 20260505161318 | 57 | 4 | 0.0 | 2.0 | 0.00 | 0.00 | 0.00 | 54 | 1012.7 |
| 20260505160118 | 56 | 344 | 0.0 | 2.0 | 0.00 | 0.00 | 0.00 | 56 | 1012.8 |
| 20260505152523 | 52 | 0.0 | 0.0 | 0.00 | 0.00 | 0.00 | 61 | 1012.8 | |
| 20260505151318 | 53 | 0.0 | 0.0 | 0.00 | 0.00 | 0.00 | 61 | 1012.6 | |
| 20260505150123 | 53 | 330 | 1.0 | 4.0 | 0.00 | 0.00 | 0.00 | 59 | 1012.6 |
| 20260505140117 | 50 | 94 | 2.0 | 4.0 | 0.00 | 0.00 | 0.00 | 62 | 1011.7 |
| 20260505130213 | 51 | 65 | 2.0 | 4.0 | 0.00 | 0.00 | 0.00 | 61 | 1011.4 |
| 20260505124939 | 51 | 59 | 2.0 | 2.0 | 0.00 | 0.00 | 0.00 | 61 | 1011.3 |
| 20260505123718 | 52 | 80 | 3.0 | 4.0 | 0.00 | 0.00 | 0.00 | 60 | 1011.3 |
| 20260505122542 | 52 | 0.0 | 0.0 | 0.00 | 0.00 | 0.00 | 59 | 1011.2 | |
| 20260505121323 | 52 | 18 | 1.0 | 2.0 | 0.00 | 0.00 | 0.00 | 58 | 1011.2 |
| 20260505120123 | 52 | 46 | 2.0 | 4.0 | 0.00 | 0.00 | 0.00 | 56 | 1011.2 |
| 20260505115012 | 52 | 27 | 1.0 | 2.0 | 0.00 | 0.00 | 0.00 | 56 | 1011.1 |
| 20260505113723 | 51 | 65 | 2.0 | 4.0 | 0.00 | 0.00 | 0.00 | 56 | 1011.1 |
| 20260505112523 | 51 | 159 | 3.0 | 4.0 | 0.00 | 0.00 | 0.00 | 57 | 1011.1 |
| 20260505111323 | 50 | 163 | 4.0 | 4.0 | 0.00 | 0.00 | 0.00 | 58 | 1011.0 |
| 20260505110159 | 51 | 154 | 4.0 | 6.0 | 0.00 | 0.00 | 0.00 | 57 | 1011.1 |
| 20260505101318 | 51 | 55 | 1.0 | 2.0 | 0.00 | 0.00 | 0.00 | 59 | 1011.0 |
| 20260505100118 | 52 | 48 | 2.0 | 4.0 | 0.00 | 0.00 | 0.00 | 60 | 1010.8 |
| 20260505094923 | 52 | 45 | 2.0 | 2.0 | 0.00 | 0.00 | 0.00 | 59 | 1010.9 |
| 20260505093723 | 52 | 113 | 2.0 | 4.0 | 0.00 | 0.00 | 0.00 | 58 | 1011.0 |
| 20260505092538 | 53 | 158 | 3.0 | 4.0 | 0.00 | 0.00 | 0.00 | 57 | 1010.9 |
| 20260505091318 | 53 | 149 | 4.0 | 4.0 | 0.00 | 0.00 | 0.00 | 55 | 1011.0 |
| 20260505090134 | 53 | 144 | 3.0 | 6.0 | 0.00 | 0.00 | 0.00 | 55 | 1010.9 |
| 20260505084918 | 53 | 135 | 3.0 | 6.0 | 0.00 | 0.00 | 0.00 | 57 | 1011.0 |
| 20260505083718 | 53 | 72 | 1.0 | 2.0 | 0.00 | 0.00 | 0.00 | 56 | 1010.9 |
| 20260505082518 | 53 | 13 | 0.0 | 2.0 | 0.00 | 0.00 | 0.00 | 56 | 1010.9 |
| 20260505081323 | 54 | 265 | 2.0 | 2.0 | 0.00 | 0.00 | 0.00 | 51 | 1010.8 |
| 20260505080129 | 54 | 0.0 | 0.0 | 0.00 | 0.00 | 0.00 | 46 | 1010.8 | |
| 20260505074918 | 55 | 0.0 | 0.0 | 0.00 | 0.00 | 0.00 | 45 | 1011.0 | |
| 20260505073717 | 55 | 10 | 1.0 | 2.0 | 0.00 | 0.00 | 0.00 | 45 | 1011.0 |
| 20260505072543 | 56 | 277 | 1.0 | 4.0 | 0.00 | 0.00 | 0.00 | 45 | 1010.9 |
| 20260505071317 | 56 | 324 | 2.0 | 4.0 | 0.00 | 0.00 | 0.00 | 45 | 1010.8 |
| 20260505070122 | 57 | 349 | 2.0 | 4.0 | 0.00 | 0.00 | 0.00 | 43 | 1010.6 |
| 20260505064921 | 57 | 333 | 4.0 | 6.0 | 0.00 | 0.00 | 0.00 | 43 | 1010.5 |
| 20260505063723 | 57 | 326 | 6.0 | 8.0 | 0.00 | 0.00 | 0.00 | 43 | 1010.2 |
| 20260505062523 | 57 | 5 | 4.0 | 6.0 | 0.00 | 0.00 | 0.00 | 44 | 1010.5 |
| 20260505061318 | 58 | 351 | 4.0 | 8.0 | 0.00 | 0.00 | 0.00 | 43 | 1010.2 |
| 20260505060118 | 58 | 335 | 6.0 | 12.0 | 0.00 | 0.00 | 0.00 | 42 | 1010.6 |
| 20260505054917 | 58 | 346 | 4.0 | 4.0 | 0.00 | 0.00 | 0.00 | 43 | 1010.3 |
| 20260505053722 | 59 | 345 | 4.0 | 8.0 | 0.00 | 0.00 | 0.00 | 42 | 1010.4 |
| 20260505052523 | 59 | 333 | 4.0 | 8.0 | 0.00 | 0.00 | 0.00 | 42 | 1010.4 |
| 20260505051317 | 59 | 335 | 5.0 | 8.0 | 0.00 | 0.00 | 0.00 | 42 | 1010.5 |
| 20260505050123 | 60 | 322 | 6.0 | 8.0 | 0.00 | 0.00 | 0.00 | 42 | 1010.4 |
| 20260505041323 | 61 | 318 | 10.0 | 14.0 | 0.00 | 0.00 | 0.00 | 47 | 1009.8 |
| 20260505040122 | 62 | 305 | 11.0 | 18.0 | 0.00 | 0.00 | 0.00 | 48 | 1009.5 |
| 20260505035035 | 62 | 262 | 12.0 | 16.0 | 0.00 | 0.00 | 0.00 | 48 | 1009.5 |
| 20260505033725 | 63 | 306 | 9.0 | 12.0 | 0.00 | 0.00 | 0.00 | 44 | 1009.5 |
| 20260505032518 | 64 | 309 | 11.0 | 18.0 | 0.00 | 0.00 | 0.00 | 41 | 1009.2 |
| 20260505031312 | 65 | 299 | 13.0 | 20.0 | 0.00 | 0.00 | 0.00 | 39 | 1008.9 |
| 20260505030117 | 66 | 313 | 12.0 | 18.0 | 0.00 | 0.00 | 0.00 | 37 | 1008.9 |
| 20260505024918 | 67 | 299 | 14.0 | 18.0 | 0.00 | 0.00 | 0.00 | 35 | 1008.8 |